Time;durP1;ratioP1;P1;durP2;ratioP2;P2;SDS_P1;SDS_P2;PMS_P1;PMS_P2;Temp;Humidity;BMP_temperature;BMP_pressure;BME280_temperature;BME280_humidity;BME280_pressure;Samples;Min_cycle;Max_cycle;Signal;HPM_P1;HPM_P2
2021/10/29 00:01:05;;;;;;;795.85;743.30;;;18.60;91.60;;;17.82;100.00;100552.00;5071500;28;20465;-66
2021/10/29 00:03:33;;;;;;;799.40;746.38;;;18.60;91.60;;;17.83;100.00;100552.81;5072141;28;20407;-67
2021/10/29 00:06:02;;;;;;;791.13;738.60;;;18.60;91.60;;;17.82;100.00;100538.31;5072072;28;20416;-67
2021/10/29 00:08:31;;;;;;;787.88;735.13;;;18.60;91.70;;;17.83;100.00;100541.88;5072136;28;20424;-65
2021/10/29 00:10:59;;;;;;;781.30;728.80;;;18.60;91.70;;;17.84;100.00;100540.72;5071142;28;20434;-67
2021/10/29 00:13:27;;;;;;;789.17;736.75;;;18.60;91.70;;;17.86;100.00;100543.91;5072143;28;20415;-67
2021/10/29 00:15:56;;;;;;;789.63;737.00;;;18.70;91.70;;;17.87;100.00;100540.03;5071900;28;20882;-67
2021/10/29 00:18:24;;;;;;;786.70;734.30;;;18.60;91.70;;;17.86;100.00;100519.28;5071738;28;20476;-65
2021/10/29 00:20:52;;;;;;;791.40;738.92;;;18.70;91.60;;;17.84;100.00;100516.13;5070835;28;20404;-66
2021/10/29 00:23:22;;;;;;;783.90;731.80;;;18.60;91.70;;;17.81;100.00;100523.03;5071855;28;20423;-66
2021/10/29 00:25:50;;;;;;;798.63;745.35;;;18.60;91.70;;;17.82;100.00;100523.84;5072053;28;20761;-67
2021/10/29 00:28:19;;;;;;;795.33;743.00;;;18.60;91.80;;;17.80;100.00;100531.59;5071861;28;20465;-65
2021/10/29 00:30:47;;;;;;;786.05;733.53;;;18.60;91.60;;;17.79;100.00;100524.53;5070672;28;20804;-66
2021/10/29 00:33:16;;;;;;;785.10;732.60;;;18.50;91.60;;;17.78;100.00;100522.97;5071627;28;20489;-65
2021/10/29 00:35:44;;;;;;;784.63;732.00;;;18.60;91.70;;;17.76;100.00;100511.56;5070986;28;20478;-64
2021/10/29 00:38:13;;;;;;;779.10;726.80;;;18.50;91.70;;;17.74;100.00;100513.84;5071028;28;20481;-68
2021/10/29 00:40:43;;;;;;;774.30;721.87;;;18.50;91.70;;;17.69;100.00;100512.13;5069492;28;20438;-65
2021/10/29 00:43:11;;;;;;;775.42;723.28;;;18.50;91.80;;;17.69;100.00;100514.88;5070810;28;20476;-70
2021/10/29 00:45:40;;;;;;;768.77;716.93;;;18.50;91.80;;;17.70;100.00;100515.66;5070742;28;20446;-66
2021/10/29 00:48:08;;;;;;;775.70;723.05;;;18.40;91.80;;;17.68;100.00;100505.09;5071017;28;20407;-65
2021/10/29 00:50:37;;;;;;;778.88;726.63;;;18.50;91.90;;;17.66;100.00;100510.09;5070512;28;20477;-66
2021/10/29 00:53:05;;;;;;;774.35;722.45;;;18.40;91.80;;;17.64;100.00;100506.91;5071335;28;20476;-65
2021/10/29 00:55:34;;;;;;;780.42;728.42;;;18.50;91.80;;;17.64;100.00;100511.56;5071176;28;20411;-67
2021/10/29 00:58:04;;;;;;;786.92;734.47;;;18.50;91.80;;;17.61;100.00;100506.78;5071037;28;20905;-68
2021/10/29 01:00:32;;;;;;;784.67;732.63;;;18.40;91.80;;;17.58;100.00;100502.00;5070222;28;20874;-66
2021/10/29 01:03:00;;;;;;;784.15;731.75;;;18.40;91.80;;;17.58;100.00;100502.00;5070871;28;20403;-63
2021/10/29 01:05:30;;;;;;;472.30;427.67;;;18.40;91.80;;;17.66;100.00;100498.38;5071850;28;20225;-68
2021/10/29 01:07:59;;;;;;;741.80;690.35;;;18.30;91.80;;;17.56;100.00;100494.16;5070698;28;20407;-66
2021/10/29 01:10:30;;;;;;;778.25;725.95;;;18.30;92.20;;;17.55;100.00;100491.75;5069729;28;20415;-67
2021/10/29 01:12:58;;;;;;;780.83;728.35;;;18.30;91.90;;;17.55;100.00;100489.03;5069514;28;20526;-68
2021/10/29 01:15:28;;;;;;;784.75;732.22;;;18.30;91.90;;;17.53;100.00;100481.16;5070724;28;20408;-66
2021/10/29 01:17:56;;;;;;;780.88;728.47;;;18.30;91.90;;;17.55;100.00;100480.81;5070316;28;20421;-63
2021/10/29 01:20:26;;;;;;;783.40;730.78;;;18.30;92.00;;;17.57;100.00;100484.81;5069348;28;20407;-67
2021/10/29 01:22:55;;;;;;;797.55;744.78;;;18.30;91.90;;;17.58;100.00;100480.13;5070447;28;20496;-66
2021/10/29 01:25:23;;;;;;;796.22;743.58;;;18.30;91.90;;;17.58;100.00;100480.94;5069984;28;20435;-68
2021/10/29 01:27:51;;;;;;;491.35;446.40;;;18.40;91.90;;;17.69;100.00;100479.31;5071814;28;20267;-68
2021/10/29 01:30:20;;;;;;;747.45;695.75;;;18.30;91.90;;;17.60;100.00;100467.72;5069781;28;20549;-66
2021/10/29 01:32:48;;;;;;;774.57;722.57;;;18.30;92.00;;;17.60;100.00;100467.72;5070878;28;20828;-68
2021/10/29 01:35:18;;;;;;;779.67;727.47;;;18.30;92.00;;;17.60;100.00;100462.25;5070367;28;20439;-65
2021/10/29 01:37:47;;;;;;;792.40;739.50;;;18.40;92.00;;;17.61;100.00;100452.09;5070339;28;20804;-65
2021/10/29 01:40:18;;;;;;;786.72;734.40;;;18.40;91.90;;;17.61;100.00;100457.56;5069439;28;20407;-68
2021/10/29 01:42:48;;;;;;;785.97;733.63;;;18.40;91.90;;;17.58;100.00;100452.81;5070346;28;20407;-69
2021/10/29 01:45:17;;;;;;;795.33;743.03;;;18.40;91.90;;;17.57;100.00;100451.22;5070329;28;21007;-68
2021/10/29 01:47:46;;;;;;;792.70;740.13;;;18.30;91.80;;;17.54;100.00;100451.88;5070318;28;20469;-71
2021/10/29 01:50:14;;;;;;;796.80;744.20;;;18.30;91.80;;;17.53;100.00;100462.03;5069367;28;20422;-70
2021/10/29 01:52:42;;;;;;;789.73;737.33;;;18.30;91.70;;;17.49;100.00;100459.19;5069880;28;20441;-71
2021/10/29 01:55:12;;;;;;;791.67;739.22;;;18.30;91.80;;;17.47;100.00;100458.72;5070312;28;20870;-70
2021/10/29 01:57:40;;;;;;;790.45;738.35;;;18.30;91.70;;;17.46;100.00;100456.34;5070401;28;20415;-66
2021/10/29 02:00:10;;;;;;;789.30;736.63;;;18.30;91.70;;;17.47;100.00;100458.72;5069280;28;20878;-67
2021/10/29 02:02:39;;;;;;;789.28;737.25;;;18.20;91.70;;;17.48;100.00;100470.44;5069824;28;20492;-68
2021/10/29 02:05:09;;;;;;;787.95;735.65;;;18.20;91.60;;;17.46;100.00;100451.66;5069952;28;20477;-68
2021/10/29 02:07:37;;;;;;;781.55;729.60;;;18.20;91.60;;;17.47;100.00;100455.19;5069964;28;20511;-67
2021/10/29 02:10:06;;;;;;;777.78;726.17;;;18.30;91.70;;;17.48;100.00;100451.31;5068529;28;20415;-69
2021/10/29 02:12:36;;;;;;;769.55;718.15;;;18.20;91.70;;;17.47;100.00;100442.34;5068223;28;20450;-67
2021/10/29 02:15:05;;;;;;;771.35;719.42;;;18.20;91.70;;;17.44;100.00;100434.03;5068685;28;20411;-65
2021/10/29 02:17:34;;;;;;;779.17;727.30;;;18.20;91.60;;;17.44;100.00;100434.03;5069297;28;20438;-67
2021/10/29 02:20:02;;;;;;;774.03;722.10;;;18.20;91.70;;;17.42;100.00;100428.88;5069071;28;20907;-68
2021/10/29 02:22:31;;;;;;;777.13;725.35;;;18.20;91.70;;;17.42;100.00;100434.34;5069863;28;20411;-66
2021/10/29 02:24:59;;;;;;;780.25;728.28;;;18.20;91.70;;;17.39;100.00;100428.78;5065937;28;20493;-66
2021/10/29 02:27:27;;;;;;;778.47;726.77;;;18.20;91.60;;;17.39;100.00;100424.09;5056110;28;20424;-67
2021/10/29 02:29:57;;;;;;;783.90;731.75;;;18.20;91.70;;;17.41;100.00;100418.31;5057526;28;20413;-68
2021/10/29 02:32:25;;;;;;;802.15;750.05;;;18.20;91.70;;;17.43;100.00;100413.28;5049571;28;20413;-66
2021/10/29 02:34:53;;;;;;;801.40;749.10;;;18.20;91.60;;;17.46;100.00;100412.59;5051408;28;20966;-69
2021/10/29 02:37:21;;;;;;;798.00;745.47;;;18.20;91.60;;;17.47;100.00;100409.53;5062641;28;20412;-64
2021/10/29 02:39:50;;;;;;;801.90;749.60;;;18.20;91.60;;;17.46;100.00;100407.13;5059551;28;20411;-63
2021/10/29 02:42:18;;;;;;;804.70;751.90;;;18.20;91.60;;;17.46;100.00;100402.47;5057833;28;20462;-68
2021/10/29 02:44:46;;;;;;;801.10;748.28;;;18.20;91.60;;;17.47;100.00;100406.00;5069356;28;20477;-64
2021/10/29 02:47:15;;;;;;;803.75;751.20;;;18.30;91.70;;;17.51;100.00;100408.84;5068163;28;20773;-66
2021/10/29 02:49:44;;;;;;;794.10;742.30;;;18.20;91.60;;;17.50;100.00;100402.56;5067628;28;20411;-66
2021/10/29 02:52:12;;;;;;;790.45;738.38;;;18.20;91.50;;;17.51;100.00;100401.41;5068121;28;20411;-65
2021/10/29 02:54:40;;;;;;;796.08;743.72;;;18.30;91.60;;;17.54;100.00;100402.69;5068911;28;20408;-66
2021/10/29 02:57:08;;;;;;;806.38;753.85;;;18.30;91.60;;;17.55;100.00;100404.28;5068016;28;20469;-69
2021/10/29 02:59:36;;;;;;;798.17;745.87;;;18.30;91.60;;;17.58;100.00;100392.66;5068248;28;20418;-66
2021/10/29 03:02:05;;;;;;;801.85;749.55;;;18.30;91.60;;;17.58;100.00;100398.91;5068884;28;20419;-68
2021/10/29 03:04:34;;;;;;;816.40;763.85;;;18.30;91.50;;;17.59;100.00;100397.78;5069558;28;20527;-64
2021/10/29 03:07:02;;;;;;;806.20;753.58;;;18.40;91.50;;;17.63;100.00;100392.44;5069228;28;20415;-66
2021/10/29 03:09:31;;;;;;;803.60;751.03;;;18.40;91.50;;;17.67;100.00;100394.09;5068931;28;20411;-67
2021/10/29 03:11:59;;;;;;;803.20;750.90;;;18.40;91.50;;;17.70;100.00;100389.88;5069285;28;20472;-69
2021/10/29 03:14:28;;;;;;;800.37;748.27;;;18.40;91.50;;;17.72;100.00;100393.09;5069579;28;20442;-67
2021/10/29 03:16:56;;;;;;;801.17;749.08;;;18.50;91.50;;;17.77;100.00;100390.88;5069333;28;20419;-65
2021/10/29 03:19:24;;;;;;;806.35;753.83;;;18.50;91.50;;;17.80;100.00;100379.25;5068945;28;20419;-67
2021/10/29 03:21:54;;;;;;;805.33;752.72;;;18.50;91.40;;;17.84;100.00;100387.56;5068847;28;20426;-67
2021/10/29 03:24:22;;;;;;;812.97;760.57;;;18.60;91.40;;;17.88;100.00;100385.69;5069117;28;20412;-65
2021/10/29 03:26:50;;;;;;;808.65;756.03;;;18.60;91.40;;;17.89;100.00;100381.84;5069321;28;20422;-64
2021/10/29 03:29:18;;;;;;;809.92;757.33;;;18.70;91.30;;;17.93;100.00;100385.47;5070017;28;20810;-68
2021/10/29 03:31:46;;;;;;;806.25;753.95;;;18.70;91.30;;;17.98;100.00;100374.25;5072177;28;20797;-67
2021/10/29 03:34:14;;;;;;;815.20;762.50;;;18.70;91.20;;;17.99;100.00;100376.63;5072761;28;20427;-68
2021/10/29 03:36:42;;;;;;;800.53;748.47;;;18.70;91.50;;;18.02;100.00;100369.69;5072879;28;20911;-69
2021/10/29 03:39:15;;;;;;;806.90;754.30;;;18.80;91.20;;;18.04;100.00;100372.88;5072832;28;20497;-66
2021/10/29 03:41:48;;;;;;;800.47;748.63;;;18.80;91.10;;;18.05;100.00;100370.94;5072218;28;20477;-64
2021/10/29 03:44:22;;;;;;;795.75;743.80;;;18.80;91.10;;;18.06;100.00;100364.28;5072596;28;20905;-69
2021/10/29 03:46:51;;;;;;;792.92;741.33;;;18.80;91.10;;;18.07;100.00;100365.91;5072625;28;20476;-68
2021/10/29 03:49:24;;;;;;;795.75;743.88;;;18.80;91.10;;;18.08;100.00;100360.09;5072263;28;20469;-65
2021/10/29 03:51:55;;;;;;;796.50;745.08;;;18.80;91.00;;;18.07;100.00;100357.69;5072078;28;20421;-64
2021/10/29 03:54:28;;;;;;;802.25;750.20;;;18.80;91.00;;;18.07;100.00;100352.22;5072655;28;20849;-66
2021/10/29 03:57:09;;;;;;;798.53;746.90;;;18.80;91.00;;;18.08;100.00;100351.88;5072457;28;20407;-65
2021/10/29 03:59:37;;;;;;;797.42;745.55;;;18.80;91.00;;;18.07;100.00;100349.47;5071575;28;20773;-67
2021/10/29 04:02:09;;;;;;;800.17;748.40;;;18.80;91.00;;;18.08;100.00;100357.34;5072093;28;20423;-66
2021/10/29 04:04:37;;;;;;;795.50;743.80;;;18.80;91.00;;;18.10;100.00;100365.19;5072304;28;20411;-64
2021/10/29 04:07:05;;;;;;;805.93;753.73;;;18.90;91.10;;;18.10;100.00;100357.78;5072244;28;20501;-66
2021/10/29 04:09:35;;;;;;;801.27;749.03;;;18.90;91.10;;;18.10;100.00;100356.97;5071384;28;20446;-64
2021/10/29 04:12:03;;;;;;;803.35;751.25;;;18.90;91.20;;;18.11;100.00;100358.59;5071844;28;20412;-67
2021/10/29 04:14:31;;;;;;;802.03;749.95;;;18.90;91.30;;;18.13;100.00;100356.28;5072148;28;20423;-64
2021/10/29 04:17:00;;;;;;;803.83;752.08;;;18.90;91.30;;;18.15;100.00;100354.00;5072140;28;20415;-68
2021/10/29 04:19:28;;;;;;;803.88;751.83;;;18.90;91.40;;;18.20;100.00;100360.00;5071686;28;20415;-69
2021/10/29 04:21:57;;;;;;;809.50;757.22;;;18.90;91.30;;;18.21;100.00;100350.63;5071589;28;20417;-65
2021/10/29 04:24:25;;;;;;;810.30;757.97;;;19.00;91.40;;;18.25;100.00;100353.47;5071782;28;20412;-65
2021/10/29 04:26:57;;;;;;;818.88;766.50;;;19.00;91.40;;;18.29;100.00;100344.22;5071821;28;20489;-67
2021/10/29 04:29:29;;;;;;;819.28;766.70;;;19.00;91.40;;;18.33;100.00;100344.31;5071635;28;20443;-66
2021/10/29 04:31:57;;;;;;;811.50;759.10;;;19.10;91.40;;;18.35;100.00;100344.75;5071713;28;20477;-70
2021/10/29 04:34:27;;;;;;;817.53;765.03;;;19.10;91.40;;;18.40;100.00;100349.94;5071865;28;20498;-68
2021/10/29 04:37:00;;;;;;;816.42;764.05;;;19.20;91.40;;;18.43;100.00;100341.81;5071672;28;20431;-65
2021/10/29 04:39:28;;;;;;;819.58;767.47;;;19.20;91.40;;;18.46;100.00;100329.38;5071211;28;20426;-68
2021/10/29 04:41:58;;;;;;;827.72;774.70;;;19.20;91.30;;;18.50;100.00;100330.28;5071581;28;20418;-68
2021/10/29 04:44:26;;;;;;;834.83;781.93;;;19.30;91.40;;;18.51;100.00;100321.69;5071679;28;20407;-66
2021/10/29 04:46:54;;;;;;;825.20;772.83;;;19.30;91.30;;;18.54;100.00;100326.47;5071572;28;21142;-65
2021/10/29 04:49:22;;;;;;;834.42;781.38;;;19.30;91.20;;;18.57;100.00;100321.44;5071047;28;20472;-65
2021/10/29 04:51:50;;;;;;;838.20;785.05;;;19.30;91.20;;;18.59;100.00;100325.41;5070889;28;20410;-71
2021/10/29 04:54:18;;;;;;;838.25;785.13;;;19.30;91.30;;;18.62;100.00;100335.66;5071406;28;20457;-68
2021/10/29 04:56:47;;;;;;;841.47;788.33;;;19.40;91.30;;;18.63;100.00;100329.06;5071423;28;20415;-66
2021/10/29 04:59:18;;;;;;;836.60;783.83;;;19.40;91.30;;;18.65;100.00;100321.25;5071218;28;20601;-64
2021/10/29 05:01:46;;;;;;;843.10;789.75;;;19.40;91.30;;;18.68;100.00;100317.00;5070351;28;20510;-66
2021/10/29 05:04:15;;;;;;;522.90;478.50;;;19.40;91.30;;;18.77;100.00;100291.03;5072386;28;20212;-66
2021/10/29 05:06:43;;;;;;;791.63;739.92;;;19.40;91.30;;;18.69;100.00;100296.69;5071003;28;20913;-64
2021/10/29 05:09:11;;;;;;;825.85;773.15;;;19.40;91.30;;;18.71;100.00;100288.91;5071193;28;20889;-64
2021/10/29 05:11:39;;;;;;;826.47;773.70;;;19.40;91.40;;;18.72;100.00;100287.78;5070388;28;21031;-67
2021/10/29 05:14:08;;;;;;;832.80;779.80;;;19.50;91.40;;;18.75;100.00;100287.84;5070932;28;20801;-64
2021/10/29 05:16:37;;;;;;;844.65;791.05;;;19.50;91.40;;;18.78;100.00;100300.84;5070886;28;20411;-64
2021/10/29 05:19:05;;;;;;;838.60;785.40;;;19.50;91.30;;;18.81;100.00;100315.75;5070917;28;20423;-68
2021/10/29 05:21:34;;;;;;;838.13;785.07;;;19.60;91.40;;;18.82;100.00;100309.91;5069960;28;20885;-64
2021/10/29 05:24:02;;;;;;;847.15;793.88;;;19.60;91.30;;;18.86;100.00;100323.69;5070769;28;20468;-70
2021/10/29 05:26:30;;;;;;;843.75;790.67;;;19.60;91.40;;;18.89;100.00;100310.09;5070787;28;20458;-65
2021/10/29 05:28:58;;;;;;;844.05;790.92;;;19.70;91.50;;;18.93;100.00;100321.13;5070541;28;20411;-67
2021/10/29 05:31:26;;;;;;;846.83;792.88;;;19.70;91.60;;;18.98;100.00;100327.13;5069770;28;20828;-69
2021/10/29 05:33:56;;;;;;;849.47;795.38;;;19.80;91.80;;;19.04;100.00;100341.31;5070611;28;20882;-69
2021/10/29 05:36:24;;;;;;;861.60;807.35;;;19.80;91.80;;;19.09;100.00;100341.03;5070630;28;20485;-65
2021/10/29 05:38:52;;;;;;;860.05;805.63;;;19.90;91.90;;;19.12;100.00;100343.06;5070520;28;20498;-68
2021/10/29 05:41:20;;;;;;;867.42;812.65;;;19.90;91.80;;;19.16;100.00;100345.88;5069557;28;20427;-68
2021/10/29 05:43:48;;;;;;;868.95;814.17;;;19.90;91.90;;;19.20;100.00;100347.56;5070472;28;20473;-68
2021/10/29 05:46:16;;;;;;;876.27;820.57;;;20.00;91.80;;;19.25;100.00;100343.72;5070391;28;20427;-69
2021/10/29 05:48:45;;;;;;;871.72;816.38;;;20.00;91.80;;;19.28;100.00;100346.56;5070510;28;20567;-67
2021/10/29 05:51:15;;;;;;;874.75;819.67;;;20.10;91.90;;;19.30;100.00;100341.50;5069621;28;20529;-67
2021/10/29 05:53:54;;;;;;;879.05;823.47;;;20.10;91.90;;;19.32;100.00;100343.91;5069846;28;20910;-69
2021/10/29 05:56:22;;;;;;;889.90;834.40;;;20.10;91.90;;;19.32;100.00;100349.38;5070079;28;20407;-69
2021/10/29 05:58:50;;;;;;;890.42;834.83;;;20.10;92.10;;;19.32;100.00;100352.91;5070297;28;20500;-68
2021/10/29 06:01:18;;;;;;;889.90;834.40;;;20.10;92.20;;;19.30;100.00;100338.75;5069321;28;20457;-66
2021/10/29 06:03:46;;;;;;;886.22;831.28;;;20.10;92.30;;;19.30;100.00;100337.97;5070370;28;20437;-68
2021/10/29 06:06:16;;;;;;;878.00;822.80;;;20.10;92.40;;;19.27;100.00;100339.47;5069955;28;20423;-69
2021/10/29 06:08:44;;;;;;;881.88;826.78;;;20.10;92.60;;;19.24;100.00;100348.41;5069947;28;20411;-66
2021/10/29 06:11:12;;;;;;;883.08;828.33;;;20.00;92.70;;;19.20;100.00;100346.75;5069209;28;20411;-66
2021/10/29 06:13:41;;;;;;;890.72;835.42;;;20.00;92.80;;;19.18;100.00;100349.84;5070102;28;20411;-67
2021/10/29 06:16:10;;;;;;;883.27;827.83;;;20.00;92.90;;;19.17;100.00;100364.72;5069986;28;20435;-67
2021/10/29 06:18:38;;;;;;;879.67;824.63;;;20.00;93.00;;;19.17;100.00;100375.69;5069984;28;20865;-66
2021/10/29 06:21:07;;;;;;;877.78;822.15;;;19.90;93.10;;;19.15;100.00;100372.50;5068891;28;20943;-65
2021/10/29 06:23:45;;;;;;;873.05;817.70;;;20.00;93.20;;;19.16;100.00;100376.03;5069897;28;20502;-67
2021/10/29 06:26:21;;;;;;;874.60;819.03;;;19.90;93.10;;;19.13;100.00;100374.81;5069949;28;20427;-68
2021/10/29 06:28:49;;;;;;;873.80;818.42;;;19.90;93.20;;;19.11;100.00;100382.59;5070054;28;20412;-66
2021/10/29 06:31:18;;;;;;;885.63;830.03;;;19.90;93.20;;;19.10;100.00;100381.00;5068894;28;20419;-68
2021/10/29 06:33:49;;;;;;;873.85;818.08;;;19.90;93.20;;;19.09;100.00;100379.41;5069882;28;20415;-69
2021/10/29 06:36:17;;;;;;;870.20;815.00;;;19.90;93.20;;;19.08;100.00;100383.31;5069770;28;20407;-67
2021/10/29 06:38:47;;;;;;;571.22;524.60;;;19.90;93.20;;;19.09;100.00;100376.66;5071389;28;20282;-69
2021/10/29 06:41:15;;;;;;;819.60;766.40;;;19.80;93.10;;;18.93;100.00;100379.47;5068944;28;20415;-66
2021/10/29 06:43:48;;;;;;;851.72;798.00;;;19.70;93.10;;;18.88;100.00;100387.13;5069657;28;20426;-70
2021/10/29 06:46:21;;;;;;;850.70;796.90;;;19.70;93.10;;;18.83;100.00;100377.25;5069533;28;20424;-65
2021/10/29 06:48:53;;;;;;;853.95;799.70;;;19.60;93.10;;;18.81;100.00;100386.97;5069827;28;20407;-67
2021/10/29 06:59:50;;;;;;;872.30;817.15;;;19.60;93.40;;;18.89;100.00;100381.31;5069151;28;20449;-66
2021/10/29 07:41:04;;;;;;;903.17;845.95;;;20.30;94.10;;;19.51;100.00;100409.75;5065760;28;20494;-69
2021/10/29 07:43:35;;;;;;;610.88;562.42;;;20.30;94.10;;;19.61;100.00;100411.91;5068052;28;20229;-65
2021/10/29 07:46:04;;;;;;;850.95;795.35;;;20.30;94.00;;;19.54;100.00;100412.59;5066424;28;20419;-65
2021/10/29 07:48:33;;;;;;;598.10;550.28;;;20.30;94.10;;;19.63;100.00;100420.59;5067795;28;20619;-65
2021/10/29 07:51:01;;;;;;;842.80;787.38;;;20.30;94.10;;;19.57;100.00;100422.03;5065296;28;20515;-67
2021/10/29 07:53:31;;;;;;;877.88;821.53;;;20.30;94.10;;;19.60;100.00;100444.06;5066384;28;20752;-68
2021/10/29 07:56:00;;;;;;;885.78;829.95;;;20.40;94.20;;;19.58;100.00;100440.06;5066362;28;20505;-68
2021/10/29 07:58:29;;;;;;;888.95;833.30;;;20.40;94.10;;;19.59;100.00;100456.16;5066310;28;20405;-67
2021/10/29 08:00:57;;;;;;;895.97;839.97;;;20.40;94.10;;;19.53;100.00;100443.91;5065054;28;20458;-69
2021/10/29 08:03:25;;;;;;;893.95;838.72;;;20.30;93.90;;;19.39;100.00;100449.06;5069219;28;20449;-68
2021/10/29 08:05:53;;;;;;;892.22;836.67;;;20.20;93.40;;;19.28;100.00;100453.47;5085940;28;20415;-67
2021/10/29 08:08:22;;;;;;;597.20;550.42;;;20.10;93.50;;;19.27;100.00;100451.09;5087288;28;20209;-66
2021/10/29 08:10:52;;;;;;;831.37;777.60;;;20.00;93.60;;;19.14;100.00;100452.34;5085071;28;20411;-64
2021/10/29 08:13:20;;;;;;;577.03;530.30;;;19.90;93.70;;;19.18;100.00;100448.53;5087003;28;20282;-67
2021/10/29 08:15:53;;;;;;;819.40;766.03;;;19.90;93.90;;;19.15;100.00;100448.47;5076535;28;20455;-65
2021/10/29 08:18:23;;;;;;;853.80;799.17;;;19.90;93.90;;;19.17;100.00;100444.22;5072023;28;20411;-65
2021/10/29 08:20:51;;;;;;;862.60;808.20;;;19.90;93.90;;;19.25;100.00;100454.19;5089299;28;20494;-68
2021/10/29 08:23:19;;;;;;;866.45;812.17;;;20.00;94.00;;;19.34;100.00;100462.22;5092134;28;20459;-67
2021/10/29 08:25:48;;;;;;;869.25;814.88;;;20.10;94.00;;;19.40;100.00;100461.59;5092226;28;20513;-68
2021/10/29 08:28:17;;;;;;;873.55;819.17;;;20.20;94.10;;;19.49;100.00;100464.94;5092107;28;20936;-69
2021/10/29 08:30:46;;;;;;;878.20;823.40;;;20.20;93.90;;;19.54;100.00;100458.41;5090855;28;20414;-69
2021/10/29 08:33:14;;;;;;;874.87;819.97;;;20.30;93.70;;;19.60;100.00;100465.19;4169393;28;10001829;-69
2021/10/29 08:35:42;;;;;;;878.05;823.15;;;20.30;93.70;;;19.63;100.00;100459.78;5030636;28;20910;-68
2021/10/29 08:38:10;;;;;;;885.47;829.90;;;20.40;93.60;;;19.71;100.00;100470.91;4154273;28;10000985;-66
2021/10/29 08:40:38;;;;;;;886.00;830.60;;;20.40;93.50;;;19.77;100.00;100462.03;5031123;28;20954;-65
2021/10/29 08:43:06;;;;;;;889.45;833.83;;;20.50;93.50;;;19.82;100.00;100459.00;5028024;28;20418;-70
2021/10/29 08:45:36;;;;;;;887.93;832.30;;;20.60;93.50;;;19.88;100.00;100457.56;4155709;28;10002746;-66
2021/10/29 08:48:06;;;;;;;898.03;841.72;;;20.60;93.40;;;20.01;100.00;100449.97;5029039;28;20415;-68
2021/10/29 08:50:35;;;;;;;900.35;843.92;;;20.70;93.50;;;20.25;100.00;100457.91;5028670;28;20517;-65
2021/10/29 08:53:04;;;;;;;634.13;585.83;;;20.90;93.60;;;20.57;100.00;100453.84;5032092;28;20417;-65
2021/10/29 08:55:34;;;;;;;874.15;818.15;;;21.10;93.50;;;20.64;100.00;100459.44;5031490;28;20419;-68
2021/10/29 08:58:05;;;;;;;902.30;845.25;;;21.30;93.40;;;20.73;100.00;100446.25;5031748;28;20411;-68
2021/10/29 09:00:40;;;;;;;918.08;860.72;;;21.40;93.40;;;20.83;100.00;100457.78;5030732;28;20427;-66
2021/10/29 09:03:21;;;;;;;655.85;607.17;;;21.50;93.20;;;20.94;100.00;100467.81;5032945;28;20751;-68
2021/10/29 09:06:03;;;;;;;893.28;837.00;;;21.50;93.20;;;20.87;100.00;100466.91;5031873;28;20446;-67
2021/10/29 09:09:03;;;;;;;922.28;865.03;;;21.60;93.20;;;20.77;100.00;100467.50;5031938;28;20480;-68
2021/10/29 09:17:14;;;;;;;929.55;871.55;;;21.30;93.00;;;20.62;100.00;100491.19;5031610;28;20406;-65
2021/10/29 09:31:33;;;;;;;923.45;865.83;;;21.30;93.10;;;20.35;100.00;100506.78;5030510;28;20394;-68
2021/10/29 09:34:06;;;;;;;920.03;863.58;;;21.20;93.10;;;20.14;100.00;100517.31;5031376;28;20521;-67
2021/10/29 09:36:37;;;;;;;908.20;852.13;;;21.00;92.90;;;19.99;100.00;100518.16;5031224;28;20854;-67
2021/10/29 09:39:09;;;;;;;911.53;855.45;;;20.90;92.80;;;19.82;100.00;100524.06;5031204;28;20414;-67
2021/10/29 09:41:38;;;;;;;903.38;847.72;;;20.70;92.60;;;19.64;100.00;100526.41;5029982;28;20415;-64
2021/10/29 09:44:09;;;;;;;893.72;838.42;;;20.50;92.50;;;19.60;100.00;100528.28;5031101;28;20426;-69
2021/10/29 09:46:46;;;;;;;896.45;841.17;;;20.40;92.70;;;19.60;100.00;100526.34;5031334;28;20773;-67
2021/10/29 09:49:29;;;;;;;881.90;826.65;;;20.40;92.80;;;19.67;100.00;100525.69;5030788;28;20841;-71
2021/10/29 09:54:56;;;;;;;886.20;831.15;;;20.60;92.90;;;20.11;100.00;100532.56;4974953;28;20401;-65
2021/10/29 09:57:24;;;;;;;886.15;831.20;;;20.80;92.70;;;20.31;100.00;100522.38;5030788;28;20414;-65
2021/10/29 09:59:53;;;;;;;895.08;839.58;;;21.00;92.60;;;20.37;100.00;100522.88;5030104;28;20426;-67
2021/10/29 10:02:24;;;;;;;901.30;845.92;;;21.10;92.40;;;20.59;100.00;100522.94;5030534;28;20423;-68
2021/10/29 10:04:56;;;;;;;923.08;866.88;;;21.30;92.60;;;20.92;100.00;100516.84;5030582;28;20494;-67
2021/10/29 10:07:25;;;;;;;925.50;869.07;;;21.60;92.20;;;21.09;100.00;100515.63;5030702;28;20419;-67
2021/10/29 10:09:57;;;;;;;937.03;880.25;;;21.80;91.70;;;20.99;100.00;100511.50;5029625;28;20947;-70
2021/10/29 10:12:29;;;;;;;945.57;888.40;;;21.70;91.50;;;20.83;100.00;100510.00;5030315;28;20518;-69
2021/10/29 10:14:58;;;;;;;937.17;880.42;;;21.60;91.40;;;20.83;100.00;100507.25;5030500;28;20468;-65
2021/10/29 10:17:27;;;;;;;931.17;874.40;;;21.60;91.40;;;20.82;100.00;100511.19;5030514;28;20438;-70
2021/10/29 10:19:58;;;;;;;941.08;883.78;;;21.60;91.20;;;20.96;100.00;100516.94;5029658;28;20415;-67
2021/10/29 10:22:29;;;;;;;939.95;882.88;;;21.70;91.40;;;21.08;100.00;100508.50;5030312;28;20422;-70
2021/10/29 10:25:01;;;;;;;946.40;888.92;;;21.80;91.20;;;21.17;100.00;100514.56;5030267;28;20433;-70
2021/10/29 10:27:55;;;;;;;943.78;886.13;;;21.90;91.20;;;21.22;100.00;100506.78;5030468;28;20427;-70
2021/10/29 10:30:47;;;;;;;945.47;887.75;;;21.90;91.50;;;21.25;100.00;100510.75;5029522;28;20775;-69
2021/10/29 10:45:06;;;;;;;963.08;905.58;;;22.30;90.70;;;21.29;100.00;100488.81;5008208;28;20859;-68
2021/10/29 10:47:37;;;;;;;960.17;902.78;;;22.10;90.60;;;21.16;100.00;100496.47;5027079;28;20460;-70
2021/10/29 10:50:14;;;;;;;698.75;649.75;;;22.00;90.70;;;20.98;100.00;100489.84;5030561;28;20221;-70
2021/10/29 10:53:30;;;;;;;614.58;567.03;;;21.70;91.10;;;20.65;100.00;100493.22;5031228;28;20321;-68
2021/10/29 10:56:28;;;;;;;901.28;845.25;;;21.50;91.20;;;20.51;100.00;100481.97;5029960;28;20782;-68
2021/10/29 10:59:31;;;;;;;925.35;868.75;;;21.40;91.50;;;20.51;100.00;100482.78;5029897;28;20426;-64
2021/10/29 11:05:29;;;;;;;900.30;844.72;;;21.20;91.70;;;20.52;100.00;100478.84;5029796;28;21032;-66
2021/10/29 11:11:00;;;;;;;918.25;861.97;;;21.40;91.80;;;20.50;100.00;100481.16;5028919;28;20490;-68
2021/10/29 11:13:53;;;;;;;920.75;864.10;;;21.30;91.40;;;20.51;100.00;100469.03;5029930;28;20770;-66
2021/10/29 11:16:34;;;;;;;916.20;860.30;;;21.30;91.70;;;20.44;100.00;100468.91;5029641;28;20447;-69
2021/10/29 11:19:11;;;;;;;918.58;862.50;;;21.20;91.60;;;20.83;100.00;100475.09;5029649;28;20526;-69